sensor_id;sensor_type;location;lat;lon;timestamp;pressure;altitude;pressure_sealevel;temperature;humidity
60817;BME280;51921;51.518;-3.188;2023-01-26T00:01:15;102771.86;;;0.55;100.00
60817;BME280;51921;51.518;-3.188;2023-01-26T00:03:38;102768.91;;;0.98;100.00
60817;BME280;51921;51.518;-3.188;2023-01-26T00:06:05;102767.45;;;0.16;100.00
60817;BME280;51921;51.518;-3.188;2023-01-26T00:08:30;102768.51;;;0.39;100.00
60817;BME280;51921;51.518;-3.188;2023-01-26T00:10:55;102768.16;;;0.79;100.00
60817;BME280;51921;51.518;-3.188;2023-01-26T00:13:21;102760.46;;;0.60;100.00
60817;BME280;51921;51.518;-3.188;2023-01-26T00:15:47;102763.74;;;0.93;100.00
60817;BME280;51921;51.518;-3.188;2023-01-26T00:18:12;102774.34;;;0.23;100.00
60817;BME280;51921;51.518;-3.188;2023-01-26T00:20:38;102773.57;;;0.44;100.00
60817;BME280;51921;51.518;-3.188;2023-01-26T00:23:03;102764.80;;;0.18;100.00
60817;BME280;51921;51.518;-3.188;2023-01-26T00:25:29;102760.91;;;0.40;100.00
60817;BME280;51921;51.518;-3.188;2023-01-26T00:27:56;102768.60;;;0.09;100.00
60817;BME280;51921;51.518;-3.188;2023-01-26T00:30:20;102770.50;;;0.13;100.00
60817;BME280;51921;51.518;-3.188;2023-01-26T00:32:46;102764.91;;;0.58;100.00
60817;BME280;51921;51.518;-3.188;2023-01-26T00:35:12;102765.95;;;0.54;100.00
60817;BME280;51921;51.518;-3.188;2023-01-26T00:37:39;102769.16;;;0.81;100.00
60817;BME280;51921;51.518;-3.188;2023-01-26T00:40:03;102774.25;;;-0.22;100.00
60817;BME280;51921;51.518;-3.188;2023-01-26T00:42:28;102771.77;;;0.58;100.00
60817;BME280;51921;51.518;-3.188;2023-01-26T00:44:53;102766.96;;;-0.12;100.00
60817;BME280;51921;51.518;-3.188;2023-01-26T00:47:19;102769.48;;;-0.35;100.00
60817;BME280;51921;51.518;-3.188;2023-01-26T00:49:45;102771.54;;;0.54;100.00
60817;BME280;51921;51.518;-3.188;2023-01-26T00:52:11;102769.50;;;0.07;100.00
60817;BME280;51921;51.518;-3.188;2023-01-26T00:54:36;102770.46;;;0.00;100.00
60817;BME280;51921;51.518;-3.188;2023-01-26T00:57:02;102762.63;;;0.17;100.00
60817;BME280;51921;51.518;-3.188;2023-01-26T00:59:27;102761.87;;;-0.07;100.00
60817;BME280;51921;51.518;-3.188;2023-01-26T01:01:53;102771.95;;;0.44;100.00
60817;BME280;51921;51.518;-3.188;2023-01-26T01:04:19;102776.05;;;0.08;100.00
60817;BME280;51921;51.518;-3.188;2023-01-26T01:06:44;102769.48;;;0.08;100.00
60817;BME280;51921;51.518;-3.188;2023-01-26T01:09:10;102769.49;;;0.07;100.00
60817;BME280;51921;51.518;-3.188;2023-01-26T01:11:35;102769.34;;;-0.18;100.00
60817;BME280;51921;51.518;-3.188;2023-01-26T01:14:01;102767.67;;;0.05;100.00
60817;BME280;51921;51.518;-3.188;2023-01-26T01:16:26;102769.80;;;0.11;100.00
60817;BME280;51921;51.518;-3.188;2023-01-26T01:18:52;102765.93;;;-0.08;100.00
60817;BME280;51921;51.518;-3.188;2023-01-26T01:21:17;102768.62;;;0.15;100.00
60817;BME280;51921;51.518;-3.188;2023-01-26T01:23:43;102760.29;;;-0.08;100.00
60817;BME280;51921;51.518;-3.188;2023-01-26T01:26:09;102757.96;;;-0.16;100.00
60817;BME280;51921;51.518;-3.188;2023-01-26T01:28:35;102765.03;;;0.16;100.00
60817;BME280;51921;51.518;-3.188;2023-01-26T01:31:03;102766.78;;;-0.21;100.00
60817;BME280;51921;51.518;-3.188;2023-01-26T01:33:26;102766.64;;;0.44;100.00
60817;BME280;51921;51.518;-3.188;2023-01-26T01:35:55;102766.69;;;-0.11;100.00
60817;BME280;51921;51.518;-3.188;2023-01-26T01:38:17;102772.99;;;-0.20;100.00
60817;BME280;51921;51.518;-3.188;2023-01-26T01:40:43;102772.32;;;-0.16;100.00
60817;BME280;51921;51.518;-3.188;2023-01-26T01:43:11;102770.63;;;-0.08;100.00
60817;BME280;51921;51.518;-3.188;2023-01-26T01:45:40;102767.37;;;0.42;100.00
60817;BME280;51921;51.518;-3.188;2023-01-26T01:48:02;102768.94;;;-0.02;100.00
60817;BME280;51921;51.518;-3.188;2023-01-26T01:50:26;102772.24;;;0.10;100.00
60817;BME280;51921;51.518;-3.188;2023-01-26T01:52:51;102773.47;;;0.03;100.00
60817;BME280;51921;51.518;-3.188;2023-01-26T01:55:17;102768.48;;;-0.00;100.00
60817;BME280;51921;51.518;-3.188;2023-01-26T01:57:46;102765.57;;;-0.01;100.00
60817;BME280;51921;51.518;-3.188;2023-01-26T02:00:12;102758.88;;;0.07;100.00
60817;BME280;51921;51.518;-3.188;2023-01-26T02:02:34;102756.75;;;0.23;100.00
60817;BME280;51921;51.518;-3.188;2023-01-26T02:05:11;102760.67;;;-0.13;100.00
60817;BME280;51921;51.518;-3.188;2023-01-26T02:07:26;102761.27;;;-0.17;100.00
60817;BME280;51921;51.518;-3.188;2023-01-26T02:09:51;102772.34;;;-0.10;100.00
60817;BME280;51921;51.518;-3.188;2023-01-26T02:12:21;102767.99;;;-0.30;100.00
60817;BME280;51921;51.518;-3.188;2023-01-26T02:14:42;102765.96;;;0.26;100.00
60817;BME280;51921;51.518;-3.188;2023-01-26T02:17:08;102765.01;;;-0.04;100.00
60817;BME280;51921;51.518;-3.188;2023-01-26T02:19:43;102764.50;;;0.01;100.00
60817;BME280;51921;51.518;-3.188;2023-01-26T02:22:04;102759.07;;;0.63;100.00
60817;BME280;51921;51.518;-3.188;2023-01-26T02:24:28;102765.80;;;0.10;100.00
60817;BME280;51921;51.518;-3.188;2023-01-26T02:26:51;102770.43;;;0.51;100.00
60817;BME280;51921;51.518;-3.188;2023-01-26T02:29:16;102774.71;;;0.80;100.00
60817;BME280;51921;51.518;-3.188;2023-01-26T02:31:41;102770.75;;;0.45;100.00
60817;BME280;51921;51.518;-3.188;2023-01-26T02:34:07;102773.64;;;0.36;100.00
60817;BME280;51921;51.518;-3.188;2023-01-26T02:36:33;102771.62;;;0.14;100.00
60817;BME280;51921;51.518;-3.188;2023-01-26T02:41:24;102773.08;;;0.42;100.00
60817;BME280;51921;51.518;-3.188;2023-01-26T02:43:50;102771.88;;;1.33;100.00
60817;BME280;51921;51.518;-3.188;2023-01-26T02:46:15;102775.65;;;1.27;100.00
60817;BME280;51921;51.518;-3.188;2023-01-26T02:48:41;102777.69;;;2.48;100.00
60817;BME280;51921;51.518;-3.188;2023-01-26T02:51:07;102774.47;;;1.24;100.00
60817;BME280;51921;51.518;-3.188;2023-01-26T02:53:32;102779.06;;;2.86;100.00
60817;BME280;51921;51.518;-3.188;2023-01-26T02:55:58;102776.76;;;3.05;96.54
60817;BME280;51921;51.518;-3.188;2023-01-26T02:58:23;102782.23;;;2.59;98.84
60817;BME280;51921;51.518;-3.188;2023-01-26T03:00:49;102785.09;;;2.62;96.94
60817;BME280;51921;51.518;-3.188;2023-01-26T03:03:18;102782.49;;;2.08;99.31
60817;BME280;51921;51.518;-3.188;2023-01-26T03:05:40;102785.68;;;3.54;97.40
60817;BME280;51921;51.518;-3.188;2023-01-26T03:08:06;102789.43;;;2.48;95.05
60817;BME280;51921;51.518;-3.188;2023-01-26T03:10:32;102784.51;;;3.33;94.27
60817;BME280;51921;51.518;-3.188;2023-01-26T03:12:57;102792.12;;;2.39;92.74
60817;BME280;51921;51.518;-3.188;2023-01-26T03:15:23;102800.06;;;2.42;93.17
60817;BME280;51921;51.518;-3.188;2023-01-26T03:17:50;102798.21;;;2.15;94.91
60817;BME280;51921;51.518;-3.188;2023-01-26T03:20:14;102799.70;;;2.68;93.42
60817;BME280;51921;51.518;-3.188;2023-01-26T03:22:40;102801.03;;;3.17;93.84
60817;BME280;51921;51.518;-3.188;2023-01-26T03:25:07;102799.29;;;2.97;90.73
60817;BME280;51921;51.518;-3.188;2023-01-26T03:27:35;102795.10;;;3.27;89.92
60817;BME280;51921;51.518;-3.188;2023-01-26T03:29:57;102793.73;;;3.39;93.02
60817;BME280;51921;51.518;-3.188;2023-01-26T03:32:22;102799.69;;;2.89;91.97
60817;BME280;51921;51.518;-3.188;2023-01-26T03:34:47;102808.23;;;2.66;91.01
60817;BME280;51921;51.518;-3.188;2023-01-26T03:37:13;102804.26;;;3.53;89.60
60817;BME280;51921;51.518;-3.188;2023-01-26T03:39:38;102807.77;;;3.66;87.71
60817;BME280;51921;51.518;-3.188;2023-01-26T03:42:04;102810.83;;;2.58;89.43
60817;BME280;51921;51.518;-3.188;2023-01-26T03:44:29;102811.74;;;2.96;86.74
60817;BME280;51921;51.518;-3.188;2023-01-26T03:46:55;102813.54;;;4.19;83.78
60817;BME280;51921;51.518;-3.188;2023-01-26T03:49:21;102817.11;;;3.21;86.17
60817;BME280;51921;51.518;-3.188;2023-01-26T03:51:46;102821.90;;;2.59;88.77
60817;BME280;51921;51.518;-3.188;2023-01-26T03:54:12;102828.32;;;3.77;87.68
60817;BME280;51921;51.518;-3.188;2023-01-26T03:56:38;102831.29;;;3.47;89.51
60817;BME280;51921;51.518;-3.188;2023-01-26T03:59:08;102820.91;;;3.96;87.97
60817;BME280;51921;51.518;-3.188;2023-01-26T04:01:29;102824.85;;;3.24;89.00
60817;BME280;51921;51.518;-3.188;2023-01-26T04:03:56;102826.21;;;1.95;93.56
60817;BME280;51921;51.518;-3.188;2023-01-26T04:06:20;102829.68;;;3.30;89.73
60817;BME280;51921;51.518;-3.188;2023-01-26T04:08:46;102821.61;;;2.60;94.79
60817;BME280;51921;51.518;-3.188;2023-01-26T04:11:12;102825.95;;;1.31;97.86
60817;BME280;51921;51.518;-3.188;2023-01-26T04:13:37;102821.78;;;3.08;92.80
60817;BME280;51921;51.518;-3.188;2023-01-26T04:16:03;102819.52;;;2.20;93.48
60817;BME280;51921;51.518;-3.188;2023-01-26T04:18:28;102823.53;;;2.14;100.00
60817;BME280;51921;51.518;-3.188;2023-01-26T04:20:54;102831.77;;;2.06;100.00
60817;BME280;51921;51.518;-3.188;2023-01-26T04:23:20;102828.80;;;1.89;100.00
60817;BME280;51921;51.518;-3.188;2023-01-26T04:25:46;102831.25;;;2.46;100.00
60817;BME280;51921;51.518;-3.188;2023-01-26T04:28:11;102830.95;;;1.67;100.00
60817;BME280;51921;51.518;-3.188;2023-01-26T04:30:37;102830.61;;;1.93;100.00
60817;BME280;51921;51.518;-3.188;2023-01-26T04:33:02;102834.92;;;2.38;99.58
60817;BME280;51921;51.518;-3.188;2023-01-26T04:35:28;102836.85;;;1.68;100.00
60817;BME280;51921;51.518;-3.188;2023-01-26T04:37:54;102834.29;;;0.97;100.00
60817;BME280;51921;51.518;-3.188;2023-01-26T04:40:19;102838.70;;;1.77;100.00
60817;BME280;51921;51.518;-3.188;2023-01-26T04:42:45;102832.03;;;2.27;100.00
60817;BME280;51921;51.518;-3.188;2023-01-26T04:45:11;102839.86;;;1.96;98.17
60817;BME280;51921;51.518;-3.188;2023-01-26T04:47:36;102840.17;;;2.47;99.27
60817;BME280;51921;51.518;-3.188;2023-01-26T04:50:03;102841.95;;;2.50;96.12
60817;BME280;51921;51.518;-3.188;2023-01-26T04:52:28;102853.99;;;0.69;100.00
60817;BME280;51921;51.518;-3.188;2023-01-26T04:54:53;102856.59;;;1.63;100.00
60817;BME280;51921;51.518;-3.188;2023-01-26T04:57:19;102854.29;;;1.38;100.00
60817;BME280;51921;51.518;-3.188;2023-01-26T04:59:45;102859.05;;;1.14;100.00
60817;BME280;51921;51.518;-3.188;2023-01-26T05:02:10;102861.21;;;2.90;100.00
60817;BME280;51921;51.518;-3.188;2023-01-26T05:04:36;102861.27;;;1.21;100.00
60817;BME280;51921;51.518;-3.188;2023-01-26T05:07:02;102852.85;;;2.54;99.47
60817;BME280;51921;51.518;-3.188;2023-01-26T05:09:27;102852.82;;;2.66;94.99
60817;BME280;51921;51.518;-3.188;2023-01-26T05:11:53;102857.14;;;1.69;98.17
60817;BME280;51921;51.518;-3.188;2023-01-26T05:14:19;102852.17;;;3.13;95.22
60817;BME280;51921;51.518;-3.188;2023-01-26T05:16:45;102850.06;;;2.46;96.09
60817;BME280;51921;51.518;-3.188;2023-01-26T05:19:10;102856.93;;;3.03;93.15
60817;BME280;51921;51.518;-3.188;2023-01-26T05:21:36;102857.00;;;2.49;96.33
60817;BME280;51921;51.518;-3.188;2023-01-26T05:24:02;102853.62;;;2.76;93.35
60817;BME280;51921;51.518;-3.188;2023-01-26T05:26:27;102853.57;;;2.69;95.66
60817;BME280;51921;51.518;-3.188;2023-01-26T05:28:52;102845.81;;;2.43;98.58
60817;BME280;51921;51.518;-3.188;2023-01-26T05:31:18;102850.44;;;1.73;100.00
60817;BME280;51921;51.518;-3.188;2023-01-26T05:33:44;102853.42;;;2.01;100.00
60817;BME280;51921;51.518;-3.188;2023-01-26T05:36:09;102854.36;;;1.74;100.00
60817;BME280;51921;51.518;-3.188;2023-01-26T05:38:35;102853.14;;;1.68;100.00
60817;BME280;51921;51.518;-3.188;2023-01-26T05:41:00;102851.83;;;1.49;100.00
60817;BME280;51921;51.518;-3.188;2023-01-26T05:43:26;102854.13;;;0.78;100.00
60817;BME280;51921;51.518;-3.188;2023-01-26T05:45:52;102852.96;;;1.78;100.00
60817;BME280;51921;51.518;-3.188;2023-01-26T05:48:18;102849.11;;;1.66;100.00
60817;BME280;51921;51.518;-3.188;2023-01-26T05:50:43;102846.71;;;1.47;100.00
60817;BME280;51921;51.518;-3.188;2023-01-26T05:53:09;102850.36;;;1.31;100.00
60817;BME280;51921;51.518;-3.188;2023-01-26T05:55:35;102859.22;;;1.67;100.00
60817;BME280;51921;51.518;-3.188;2023-01-26T05:58:00;102856.92;;;1.36;100.00
60817;BME280;51921;51.518;-3.188;2023-01-26T06:00:26;102856.86;;;1.77;100.00
60817;BME280;51921;51.518;-3.188;2023-01-26T06:02:52;102863.35;;;1.00;100.00
60817;BME280;51921;51.518;-3.188;2023-01-26T06:05:18;102865.71;;;1.62;100.00
60817;BME280;51921;51.518;-3.188;2023-01-26T06:07:43;102862.28;;;1.38;100.00
60817;BME280;51921;51.518;-3.188;2023-01-26T06:10:10;102863.64;;;1.28;100.00
60817;BME280;51921;51.518;-3.188;2023-01-26T06:12:34;102863.97;;;1.09;100.00
60817;BME280;51921;51.518;-3.188;2023-01-26T06:15:00;102865.62;;;0.70;100.00
60817;BME280;51921;51.518;-3.188;2023-01-26T06:17:26;102868.13;;;1.79;100.00
60817;BME280;51921;51.518;-3.188;2023-01-26T06:19:52;102867.00;;;1.20;100.00
60817;BME280;51921;51.518;-3.188;2023-01-26T06:22:17;102870.39;;;1.57;100.00
60817;BME280;51921;51.518;-3.188;2023-01-26T06:24:43;102879.29;;;1.26;100.00
60817;BME280;51921;51.518;-3.188;2023-01-26T06:27:11;102881.82;;;1.42;100.00
60817;BME280;51921;51.518;-3.188;2023-01-26T06:29:34;102885.75;;;1.00;100.00
60817;BME280;51921;51.518;-3.188;2023-01-26T06:32:00;102887.32;;;0.73;100.00
60817;BME280;51921;51.518;-3.188;2023-01-26T06:34:25;102888.38;;;0.97;100.00
60817;BME280;51921;51.518;-3.188;2023-01-26T06:36:51;102892.28;;;1.43;100.00
60817;BME280;51921;51.518;-3.188;2023-01-26T06:39:17;102890.05;;;1.11;100.00
60817;BME280;51921;51.518;-3.188;2023-01-26T06:41:43;102895.01;;;1.65;100.00
60817;BME280;51921;51.518;-3.188;2023-01-26T06:44:08;102900.31;;;1.00;100.00
60817;BME280;51921;51.518;-3.188;2023-01-26T06:46:34;102905.68;;;1.00;100.00
60817;BME280;51921;51.518;-3.188;2023-01-26T06:49:01;102906.52;;;0.71;100.00
60817;BME280;51921;51.518;-3.188;2023-01-26T06:53:52;102911.54;;;0.79;100.00
60817;BME280;51921;51.518;-3.188;2023-01-26T06:56:17;102916.75;;;0.65;100.00
60817;BME280;51921;51.518;-3.188;2023-01-26T06:58:42;102923.22;;;1.12;100.00
60817;BME280;51921;51.518;-3.188;2023-01-26T07:01:09;102921.04;;;0.42;100.00
60817;BME280;51921;51.518;-3.188;2023-01-26T07:03:34;102921.53;;;0.64;100.00
60817;BME280;51921;51.518;-3.188;2023-01-26T07:05:59;102922.81;;;0.70;100.00
60817;BME280;51921;51.518;-3.188;2023-01-26T07:08:25;102920.21;;;0.89;100.00
60817;BME280;51921;51.518;-3.188;2023-01-26T07:10:51;102927.53;;;0.46;100.00
60817;BME280;51921;51.518;-3.188;2023-01-26T07:13:16;102934.39;;;0.58;100.00
60817;BME280;51921;51.518;-3.188;2023-01-26T07:15:42;102937.24;;;0.58;100.00
60817;BME280;51921;51.518;-3.188;2023-01-26T07:18:17;102941.13;;;0.55;100.00
60817;BME280;51921;51.518;-3.188;2023-01-26T07:20:33;102935.38;;;0.64;100.00
60817;BME280;51921;51.518;-3.188;2023-01-26T07:22:59;102931.35;;;0.59;100.00
60817;BME280;51921;51.518;-3.188;2023-01-26T07:25:24;102931.92;;;0.87;100.00
60817;BME280;51921;51.518;-3.188;2023-01-26T07:27:54;102926.18;;;1.01;100.00
60817;BME280;51921;51.518;-3.188;2023-01-26T07:30:16;102928.48;;;1.04;100.00
60817;BME280;51921;51.518;-3.188;2023-01-26T07:32:41;102938.59;;;1.10;100.00
60817;BME280;51921;51.518;-3.188;2023-01-26T07:35:07;102942.22;;;0.98;100.00
60817;BME280;51921;51.518;-3.188;2023-01-26T07:37:33;102947.98;;;1.75;100.00
60817;BME280;51921;51.518;-3.188;2023-01-26T07:39:58;102949.55;;;1.11;100.00
60817;BME280;51921;51.518;-3.188;2023-01-26T07:42:24;102950.85;;;1.62;100.00
60817;BME280;51921;51.518;-3.188;2023-01-26T07:44:50;102948.26;;;1.66;100.00
60817;BME280;51921;51.518;-3.188;2023-01-26T07:47:15;102952.26;;;3.16;97.26
60817;BME280;51921;51.518;-3.188;2023-01-26T07:49:41;102950.69;;;2.96;94.85
60817;BME280;51921;51.518;-3.188;2023-01-26T07:52:06;102957.54;;;2.95;94.99
60817;BME280;51921;51.518;-3.188;2023-01-26T07:54:32;102958.58;;;2.76;95.80
60817;BME280;51921;51.518;-3.188;2023-01-26T07:56:57;102956.19;;;2.73;94.67
60817;BME280;51921;51.518;-3.188;2023-01-26T07:59:23;102954.38;;;2.47;94.70
60817;BME280;51921;51.518;-3.188;2023-01-26T08:01:49;102958.31;;;3.51;90.51
60817;BME280;51921;51.518;-3.188;2023-01-26T08:04:14;102967.02;;;3.21;92.97
60817;BME280;51921;51.518;-3.188;2023-01-26T08:06:40;102962.22;;;2.63;93.59
60817;BME280;51921;51.518;-3.188;2023-01-26T08:09:06;102968.38;;;2.28;95.47
60817;BME280;51921;51.518;-3.188;2023-01-26T08:11:31;102971.85;;;2.81;92.29
60817;BME280;51921;51.518;-3.188;2023-01-26T08:13:57;102977.19;;;2.87;91.76
60817;BME280;51921;51.518;-3.188;2023-01-26T08:16:23;102979.28;;;2.91;93.25
60817;BME280;51921;51.518;-3.188;2023-01-26T08:18:48;102988.38;;;2.08;95.73
60817;BME280;51921;51.518;-3.188;2023-01-26T08:21:16;102985.96;;;2.72;96.28
60817;BME280;51921;51.518;-3.188;2023-01-26T08:23:39;102983.28;;;1.77;98.06
60817;BME280;51921;51.518;-3.188;2023-01-26T08:26:07;102983.05;;;2.40;96.63
60817;BME280;51921;51.518;-3.188;2023-01-26T08:28:31;102987.53;;;1.36;95.08
60817;BME280;51921;51.518;-3.188;2023-01-26T08:31:04;102992.59;;;2.64;95.55
60817;BME280;51921;51.518;-3.188;2023-01-26T08:33:23;102986.31;;;3.05;92.16
60817;BME280;51921;51.518;-3.188;2023-01-26T08:35:48;102982.74;;;3.69;89.70
60817;BME280;51921;51.518;-3.188;2023-01-26T08:38:13;102992.38;;;3.27;89.13
60817;BME280;51921;51.518;-3.188;2023-01-26T08:40:39;102992.58;;;2.87;89.55
60817;BME280;51921;51.518;-3.188;2023-01-26T08:43:04;102996.14;;;2.90;92.56
60817;BME280;51921;51.518;-3.188;2023-01-26T08:45:31;102998.88;;;4.10;87.07
60817;BME280;51921;51.518;-3.188;2023-01-26T08:47:56;103000.74;;;3.94;87.28
60817;BME280;51921;51.518;-3.188;2023-01-26T08:50:21;103004.87;;;3.29;90.21
60817;BME280;51921;51.518;-3.188;2023-01-26T08:52:47;103006.52;;;2.62;91.58
60817;BME280;51921;51.518;-3.188;2023-01-26T08:55:13;102998.06;;;3.47;87.83
60817;BME280;51921;51.518;-3.188;2023-01-26T08:57:38;102991.71;;;3.70;87.53
60817;BME280;51921;51.518;-3.188;2023-01-26T09:00:05;102995.92;;;5.06;83.26
60817;BME280;51921;51.518;-3.188;2023-01-26T09:02:30;102996.78;;;3.00;88.91
60817;BME280;51921;51.518;-3.188;2023-01-26T09:04:55;103000.86;;;4.93;84.56
60817;BME280;51921;51.518;-3.188;2023-01-26T09:07:21;103003.25;;;2.87;93.00
60817;BME280;51921;51.518;-3.188;2023-01-26T09:09:47;103001.46;;;3.25;90.32
60817;BME280;51921;51.518;-3.188;2023-01-26T09:12:12;102999.01;;;3.60;90.42
60817;BME280;51921;51.518;-3.188;2023-01-26T09:14:38;103001.75;;;2.94;89.31
60817;BME280;51921;51.518;-3.188;2023-01-26T09:17:03;103006.07;;;3.98;87.32
60817;BME280;51921;51.518;-3.188;2023-01-26T09:19:29;103001.18;;;4.87;82.34
60817;BME280;51921;51.518;-3.188;2023-01-26T09:21:55;103003.50;;;3.70;82.42
60817;BME280;51921;51.518;-3.188;2023-01-26T09:24:20;103005.07;;;3.66;84.71
60817;BME280;51921;51.518;-3.188;2023-01-26T09:26:46;103006.09;;;4.70;82.20
60817;BME280;51921;51.518;-3.188;2023-01-26T09:29:12;103002.24;;;5.14;79.83
60817;BME280;51921;51.518;-3.188;2023-01-26T09:31:37;103003.46;;;3.13;84.52
60817;BME280;51921;51.518;-3.188;2023-01-26T09:34:03;103001.40;;;3.69;87.26
60817;BME280;51921;51.518;-3.188;2023-01-26T09:36:28;102998.75;;;3.70;89.04
60817;BME280;51921;51.518;-3.188;2023-01-26T09:38:54;103001.49;;;4.23;86.56
60817;BME280;51921;51.518;-3.188;2023-01-26T09:41:35;102998.33;;;3.54;89.06
60817;BME280;51921;51.518;-3.188;2023-01-26T09:43:50;103002.19;;;3.74;87.57
60817;BME280;51921;51.518;-3.188;2023-01-26T09:46:20;103005.49;;;3.43;89.13
60817;BME280;51921;51.518;-3.188;2023-01-26T09:48:43;103009.51;;;3.52;88.39
60817;BME280;51921;51.518;-3.188;2023-01-26T09:51:08;103011.40;;;3.62;85.22
60817;BME280;51921;51.518;-3.188;2023-01-26T09:53:36;103011.64;;;4.57;84.77
60817;BME280;51921;51.518;-3.188;2023-01-26T09:55:54;103007.25;;;3.43;87.41
60817;BME280;51921;51.518;-3.188;2023-01-26T09:58:24;103011.11;;;4.10;85.26
60817;BME280;51921;51.518;-3.188;2023-01-26T10:00:47;103015.97;;;3.65;89.57
60817;BME280;51921;51.518;-3.188;2023-01-26T10:03:16;103017.63;;;3.46;91.22
60817;BME280;51921;51.518;-3.188;2023-01-26T10:05:40;103007.01;;;3.37;92.20
60817;BME280;51921;51.518;-3.188;2023-01-26T10:08:01;103007.00;;;3.14;91.13
60817;BME280;51921;51.518;-3.188;2023-01-26T10:10:28;103008.73;;;3.21;91.08
60817;BME280;51921;51.518;-3.188;2023-01-26T10:12:52;103008.11;;;2.66;96.35
60817;BME280;51921;51.518;-3.188;2023-01-26T10:15:27;103002.97;;;2.97;95.16
60817;BME280;51921;51.518;-3.188;2023-01-26T10:17:45;103011.86;;;2.85;92.41
60817;BME280;51921;51.518;-3.188;2023-01-26T10:20:20;103010.70;;;1.92;99.04
60817;BME280;51921;51.518;-3.188;2023-01-26T10:22:46;103003.98;;;4.37;88.20
60817;BME280;51921;51.518;-3.188;2023-01-26T10:25:00;103001.71;;;5.21;82.66
60817;BME280;51921;51.518;-3.188;2023-01-26T10:27:27;102998.59;;;5.07;79.19
60817;BME280;51921;51.518;-3.188;2023-01-26T10:29:51;103001.91;;;4.03;82.40
60817;BME280;51921;51.518;-3.188;2023-01-26T10:32:17;102995.25;;;5.58;78.03
60817;BME280;51921;51.518;-3.188;2023-01-26T10:34:43;102996.36;;;6.11;74.22
60817;BME280;51921;51.518;-3.188;2023-01-26T10:37:17;103000.14;;;4.20;76.98
60817;BME280;51921;51.518;-3.188;2023-01-26T10:39:33;103002.61;;;6.08;73.50
60817;BME280;51921;51.518;-3.188;2023-01-26T10:42:00;103004.92;;;5.89;75.42
60817;BME280;51921;51.518;-3.188;2023-01-26T10:44:31;103006.10;;;5.98;74.20
60817;BME280;51921;51.518;-3.188;2023-01-26T10:47:02;103004.24;;;4.99;75.47
60817;BME280;51921;51.518;-3.188;2023-01-26T10:49:16;103006.51;;;3.70;76.90
60817;BME280;51921;51.518;-3.188;2023-01-26T10:51:43;102999.23;;;3.12;87.02
60817;BME280;51921;51.518;-3.188;2023-01-26T10:54:21;103004.34;;;2.05;92.36
60817;BME280;51921;51.518;-3.188;2023-01-26T10:56:33;103010.72;;;1.97;93.67
60817;BME280;51921;51.518;-3.188;2023-01-26T10:59:01;103016.49;;;1.69;96.29
60817;BME280;51921;51.518;-3.188;2023-01-26T11:01:23;103016.16;;;1.85;96.03
60817;BME280;51921;51.518;-3.188;2023-01-26T11:04:02;103021.75;;;2.14;95.43
60817;BME280;51921;51.518;-3.188;2023-01-26T11:06:16;103020.78;;;2.17;97.55
60817;BME280;51921;51.518;-3.188;2023-01-26T11:08:41;103020.44;;;1.89;98.30
60817;BME280;51921;51.518;-3.188;2023-01-26T11:11:07;103026.68;;;1.78;99.23
60817;BME280;51921;51.518;-3.188;2023-01-26T11:13:31;103025.36;;;1.94;97.53
60817;BME280;51921;51.518;-3.188;2023-01-26T11:16:03;103012.10;;;1.81;97.85
60817;BME280;51921;51.518;-3.188;2023-01-26T11:18:32;103011.52;;;1.81;99.86
60817;BME280;51921;51.518;-3.188;2023-01-26T11:20:55;103013.35;;;1.74;100.00
60817;BME280;51921;51.518;-3.188;2023-01-26T11:23:23;103010.43;;;1.93;99.25
60817;BME280;51921;51.518;-3.188;2023-01-26T11:25:47;103001.27;;;1.77;98.61
60817;BME280;51921;51.518;-3.188;2023-01-26T11:28:18;103005.42;;;1.69;97.54
60817;BME280;51921;51.518;-3.188;2023-01-26T11:30:45;103007.48;;;1.98;98.66
60817;BME280;51921;51.518;-3.188;2023-01-26T11:33:02;103006.79;;;1.89;100.00
60817;BME280;51921;51.518;-3.188;2023-01-26T11:35:29;103017.81;;;2.05;100.00
60817;BME280;51921;51.518;-3.188;2023-01-26T11:37:50;103012.62;;;2.49;100.00
60817;BME280;51921;51.518;-3.188;2023-01-26T11:40:21;103012.88;;;2.42;100.00
60817;BME280;51921;51.518;-3.188;2023-01-26T11:42:45;103009.00;;;2.66;99.98
60817;BME280;51921;51.518;-3.188;2023-01-26T11:45:16;103002.41;;;2.15;100.00
60817;BME280;51921;51.518;-3.188;2023-01-26T11:47:40;103001.69;;;2.18;100.00
60817;BME280;51921;51.518;-3.188;2023-01-26T11:50:14;103004.37;;;2.27;98.55
60817;BME280;51921;51.518;-3.188;2023-01-26T11:52:25;103004.34;;;2.81;94.98
60817;BME280;51921;51.518;-3.188;2023-01-26T11:54:57;103004.02;;;2.68;95.04
60817;BME280;51921;51.518;-3.188;2023-01-26T11:57:19;103000.07;;;2.87;95.52
60817;BME280;51921;51.518;-3.188;2023-01-26T11:59:41;102994.79;;;2.59;95.46
60817;BME280;51921;51.518;-3.188;2023-01-26T12:02:05;102995.36;;;3.48;91.83
60817;BME280;51921;51.518;-3.188;2023-01-26T12:04:31;102994.89;;;3.25;91.01
60817;BME280;51921;51.518;-3.188;2023-01-26T12:06:57;103002.86;;;3.00;88.73
60817;BME280;51921;51.518;-3.188;2023-01-26T12:11:51;102997.04;;;2.42;92.84
60817;BME280;51921;51.518;-3.188;2023-01-26T12:14:17;103000.14;;;3.27;91.72
60817;BME280;51921;51.518;-3.188;2023-01-26T12:16:47;103002.47;;;3.10;91.24
60817;BME280;51921;51.518;-3.188;2023-01-26T12:19:10;103000.03;;;2.97;91.33
60817;BME280;51921;51.518;-3.188;2023-01-26T12:21:29;103005.88;;;2.43;93.94
60817;BME280;51921;51.518;-3.188;2023-01-26T12:23:58;102994.40;;;2.09;96.99
60817;BME280;51921;51.518;-3.188;2023-01-26T12:26:20;102994.77;;;2.51;98.24
60817;BME280;51921;51.518;-3.188;2023-01-26T12:28:48;102985.73;;;2.69;97.98
60817;BME280;51921;51.518;-3.188;2023-01-26T12:31:15;102981.59;;;2.90;94.22
60817;BME280;51921;51.518;-3.188;2023-01-26T12:33:37;102983.58;;;2.46;94.58
60817;BME280;51921;51.518;-3.188;2023-01-26T12:38:37;102980.17;;;3.07;95.25
60817;BME280;51921;51.518;-3.188;2023-01-26T12:41:02;102979.55;;;3.11;96.08
60817;BME280;51921;51.518;-3.188;2023-01-26T12:43:26;102989.23;;;2.85;96.50
60817;BME280;51921;51.518;-3.188;2023-01-26T12:45:46;102993.63;;;2.75;97.62